Terminal Aerodrome Forecast
Issued by NWS Mt. Holly, NJ

Home | Current Version | Previous Version | Text Only | Print | Product List | Glossary On
Versions: 1 2 3 4 5 6 7 8 9 10 11 12 13 14 15 16 17 18
000
FTUS41 KPHI 172337
TAFABE
TAF
KABE 172337Z 1800/1824 VRB03KT P6SM SCT150
     FM180900 VRB03KT P6SM BKN150 WS020/20040KT
     FM181400 22008KT P6SM BKN100
     FM181600 19010KT 6SM -SHRA OVC050
     FM182000 19010KT 6SM -SHRA OVC015=

USA.gov is the U.S. government's official web portal to all federal, state and local government web resources and services.